createdAt,value
2023-02-12T00:00:56.800Z,48.70
2023-02-12T00:03:49.672Z,48.05
2023-02-12T00:06:23.642Z,48.30
2023-02-12T00:08:57.647Z,47.77
2023-02-12T00:11:31.249Z,47.60
2023-02-12T00:14:05.880Z,47.47
2023-02-12T00:16:38.649Z,48.15
2023-02-12T00:19:12.111Z,43.90
2023-02-12T00:21:45.232Z,44.80
2023-02-12T00:24:18.429Z,43.90
2023-02-12T00:26:51.614Z,41.85
2023-02-12T00:29:24.391Z,41.45
2023-02-12T00:31:57.449Z,40.10
2023-02-12T00:34:33.636Z,41.50
2023-02-12T00:37:06.829Z,39.67
2023-02-12T00:39:40.018Z,41.55
2023-02-12T00:42:13.209Z,40.67
2023-02-12T00:44:46.398Z,40.80
2023-02-12T00:47:19.174Z,40.57
2023-02-12T00:49:52.569Z,42.55
2023-02-12T00:52:25.143Z,38.95
2023-02-12T00:54:58.334Z,39.25
2023-02-12T00:57:31.522Z,38.90
2023-02-12T01:00:04.791Z,36.80
2023-02-12T01:02:37.090Z,36.80
2023-02-12T01:05:12.766Z,38.33
2023-02-12T01:07:45.716Z,36.37
2023-02-12T01:10:22.211Z,39.45
2023-02-12T01:12:55.593Z,35.25
2023-02-12T01:15:28.804Z,35.75
2023-02-12T01:18:01.161Z,35.03
2023-02-12T01:20:34.329Z,36.80
2023-02-12T01:23:09.005Z,35.40
2023-02-12T01:25:42.343Z,35.75
2023-02-12T01:28:15.578Z,36.35
2023-02-12T01:30:48.628Z,36.05
2023-02-12T01:33:21.709Z,33.85
2023-02-12T01:35:56.121Z,34.25
2023-02-12T01:38:29.111Z,36.27
2023-02-12T01:41:06.053Z,33.55
2023-02-12T01:43:39.594Z,36.55
2023-02-12T01:46:14.482Z,35.80
2023-02-12T01:48:48.900Z,35.00
2023-02-12T01:51:23.659Z,34.73
2023-02-12T01:53:57.465Z,35.90
2023-02-12T01:56:30.855Z,34.30
2023-02-12T01:59:03.716Z,35.13
2023-02-12T02:01:38.535Z,35.45
2023-02-12T02:04:12.959Z,35.10
2023-02-12T02:06:50.344Z,35.80
2023-02-12T02:09:23.769Z,35.00
2023-02-12T02:12:13.958Z,35.75
2023-02-12T02:14:47.549Z,35.95
2023-02-12T02:17:24.832Z,35.20
2023-02-12T02:20:07.446Z,34.00
2023-02-12T02:22:42.736Z,34.00
2023-02-12T02:25:24.063Z,35.90
2023-02-12T02:28:03.547Z,35.50
2023-02-12T02:30:45.589Z,36.90
2023-02-12T02:33:23.708Z,38.88
2023-02-12T02:36:01.195Z,38.90
2023-02-12T02:38:37.348Z,38.00
2023-02-12T02:41:14.893Z,41.07
2023-02-12T02:43:49.975Z,37.80
2023-02-12T02:46:26.389Z,38.20
2023-02-12T02:49:01.266Z,36.45
2023-02-12T02:51:35.480Z,37.65
2023-02-12T02:54:11.041Z,35.90
2023-02-12T02:56:45.616Z,37.20
2023-02-12T02:59:20.372Z,35.23
2023-02-12T03:01:54.781Z,37.45
2023-02-12T03:04:32.894Z,38.40
2023-02-12T03:07:08.661Z,38.87
2023-02-12T03:09:45.418Z,36.25
2023-02-12T03:12:20.863Z,37.05
2023-02-12T03:14:56.728Z,36.73
2023-02-12T03:17:31.791Z,38.27
2023-02-12T03:20:06.634Z,35.40
2023-02-12T03:22:41.402Z,38.50
2023-02-12T03:25:16.276Z,36.00
2023-02-12T03:27:51.263Z,38.10
2023-02-12T03:30:25.273Z,38.10
2023-02-12T03:33:03.379Z,42.45
2023-02-12T03:35:40.122Z,39.93
2023-02-12T03:38:17.333Z,41.25
2023-02-12T03:40:52.944Z,42.20
2023-02-12T03:43:27.013Z,39.55
2023-02-12T03:46:02.456Z,38.73
2023-02-12T03:48:39.104Z,42.70
2023-02-12T03:51:18.649Z,39.57
2023-02-12T03:53:51.420Z,40.20
2023-02-12T03:56:26.247Z,39.33
2023-02-12T03:58:59.437Z,41.80
2023-02-12T04:01:33.337Z,41.10
2023-02-12T04:04:07.526Z,41.20
2023-02-12T04:06:41.152Z,39.85
2023-02-12T04:09:15.063Z,41.87
2023-02-12T04:11:55.823Z,44.30
2023-02-12T04:14:32.876Z,45.40
2023-02-12T04:21:22.757Z,41.20
2023-02-12T04:23:59.953Z,39.80
2023-02-12T04:26:38.080Z,40.57
2023-02-12T04:29:15.362Z,39.50
2023-02-12T04:31:50.947Z,38.85
2023-02-12T04:34:26.497Z,43.30
2023-02-12T04:37:02.738Z,41.43
2023-02-12T04:39:37.768Z,38.45
2023-02-12T04:42:10.959Z,40.60
2023-02-12T04:44:44.566Z,40.43
2023-02-12T04:47:17.567Z,42.15
2023-02-12T04:49:50.126Z,39.55
2023-02-12T04:52:22.900Z,42.10
2023-02-12T04:54:56.505Z,41.50
2023-02-12T04:57:29.686Z,41.60
2023-02-12T05:00:03.081Z,42.03
2023-02-12T05:02:36.480Z,44.80
2023-02-12T05:05:10.176Z,43.10
2023-02-12T05:07:43.261Z,45.97
2023-02-12T05:10:16.458Z,44.90
2023-02-12T05:12:49.641Z,45.30
2023-02-12T05:15:22.848Z,44.65
2023-02-12T05:17:55.613Z,47.70
2023-02-12T05:20:28.184Z,45.87
2023-02-12T05:23:01.579Z,46.83
2023-02-12T05:25:34.363Z,46.53
2023-02-12T05:28:07.214Z,48.60
2023-02-12T05:30:40.358Z,48.67
2023-02-12T05:33:13.110Z,48.60
2023-02-12T05:35:45.887Z,46.80
2023-02-12T05:38:18.879Z,48.27
2023-02-12T05:40:52.271Z,47.40
2023-02-12T05:43:25.866Z,47.15
2023-02-12T05:46:00.148Z,45.57
2023-02-12T05:48:33.061Z,47.15
2023-02-12T05:51:07.409Z,49.10
2023-02-12T05:53:40.673Z,47.37
2023-02-12T05:56:14.753Z,49.55
2023-02-12T05:58:48.342Z,48.05
2023-02-12T06:01:24.062Z,50.80
2023-02-12T06:03:57.528Z,50.75
2023-02-12T06:06:31.527Z,52.10
2023-02-12T06:09:04.344Z,55.70
2023-02-12T06:11:36.882Z,57.20
2023-02-12T06:14:12.534Z,56.97
2023-02-12T06:16:48.072Z,56.83
2023-02-12T06:19:20.814Z,57.00
2023-02-12T06:21:54.775Z,58.90
2023-02-12T06:24:28.562Z,55.75
2023-02-12T06:27:01.549Z,58.55
2023-02-12T06:29:34.126Z,58.47
2023-02-12T06:32:08.869Z,57.65
2023-02-12T06:34:42.551Z,60.00
2023-02-12T06:37:15.540Z,68.80
2023-02-12T06:39:48.937Z,76.55
2023-02-12T06:42:21.921Z,76.40
2023-02-12T06:44:55.110Z,79.35
2023-02-12T06:47:28.401Z,69.75
2023-02-12T06:50:01.529Z,74.75
2023-02-12T06:52:34.683Z,70.05
2023-02-12T06:55:08.078Z,67.35
2023-02-12T06:57:41.055Z,60.25
2023-02-12T07:00:15.286Z,58.90
2023-02-12T07:02:53.587Z,56.30
2023-02-12T07:05:27.178Z,56.47
2023-02-12T07:08:00.369Z,55.60
2023-02-12T07:10:33.556Z,52.45
2023-02-12T07:13:06.957Z,46.25
2023-02-12T07:15:41.840Z,44.05
2023-02-12T07:18:14.360Z,45.90
2023-02-12T07:20:47.135Z,48.73
2023-02-12T07:23:20.116Z,49.70
2023-02-12T07:25:58.028Z,50.15
2023-02-12T07:28:33.921Z,51.45
2023-02-12T07:31:10.287Z,46.65
2023-02-12T07:33:43.538Z,39.10
2023-02-12T07:36:18.560Z,32.77
2023-02-12T07:38:51.954Z,28.67
2023-02-12T07:41:26.576Z,28.87
2023-02-12T07:44:00.789Z,28.70
2023-02-12T07:46:35.005Z,28.97
2023-02-12T07:49:11.064Z,27.55
2023-02-12T07:51:44.456Z,26.80
2023-02-12T07:54:19.489Z,24.90
2023-02-12T07:56:53.085Z,24.17
2023-02-12T07:59:26.069Z,23.85
2023-02-12T08:02:01.398Z,22.70
2023-02-12T08:04:35.206Z,22.40
2023-02-12T08:07:08.306Z,23.20
2023-02-12T08:09:41.489Z,21.37
2023-02-12T08:12:14.684Z,22.10
2023-02-12T08:14:47.869Z,21.83
2023-02-12T08:17:21.062Z,22.00
2023-02-12T08:19:54.129Z,21.97
2023-02-12T08:22:27.439Z,22.27
2023-02-12T08:25:00.441Z,22.10
2023-02-12T08:27:33.817Z,21.55
2023-02-12T08:30:07.080Z,22.05
2023-02-12T08:32:39.559Z,21.90
2023-02-12T08:35:12.363Z,22.67
2023-02-12T08:37:45.756Z,22.90
2023-02-12T08:40:18.945Z,27.70
2023-02-12T08:42:52.211Z,27.97
2023-02-12T08:45:25.329Z,30.90
2023-02-12T08:47:57.760Z,28.17
2023-02-12T08:50:31.700Z,30.43
2023-02-12T08:53:06.519Z,27.80
2023-02-12T08:55:39.720Z,30.43
2023-02-12T08:58:13.724Z,31.40
2023-02-12T09:00:46.914Z,30.37
2023-02-12T09:03:19.360Z,29.70
2023-02-12T09:05:52.485Z,31.37
2023-02-12T09:08:25.665Z,30.75
2023-02-12T09:10:58.852Z,29.90
2023-02-12T09:13:32.039Z,30.25
2023-02-12T09:16:06.051Z,30.10
2023-02-12T09:18:39.449Z,34.05
2023-02-12T09:21:14.073Z,35.70
2023-02-12T09:23:47.462Z,34.87
2023-02-12T09:26:22.291Z,33.70
2023-02-12T09:28:55.331Z,35.30
2023-02-12T09:31:29.282Z,35.10
2023-02-12T09:34:03.518Z,34.47
2023-02-12T09:36:38.131Z,34.05
2023-02-12T09:39:11.311Z,32.00
2023-02-12T09:41:59.033Z,30.87
2023-02-12T09:44:37.558Z,32.10
2023-02-12T09:47:13.698Z,31.70
2023-02-12T09:49:55.003Z,30.05
2023-02-12T09:52:30.028Z,31.80
2023-02-12T09:55:03.422Z,29.25
2023-02-12T09:57:37.756Z,27.45
2023-02-12T10:00:13.356Z,26.75
2023-02-12T10:02:45.592Z,26.00
2023-02-12T10:05:19.684Z,28.42
2023-02-12T10:07:59.975Z,32.33
2023-02-12T10:10:40.792Z,32.75
2023-02-12T10:13:20.249Z,33.05
2023-02-12T10:15:55.626Z,35.97
2023-02-12T10:18:42.263Z,36.00
2023-02-12T10:21:22.023Z,35.30
2023-02-12T10:24:07.241Z,36.50
2023-02-12T10:26:40.865Z,36.13
2023-02-12T10:29:16.356Z,35.65
2023-02-12T10:31:52.181Z,38.10
2023-02-12T10:34:26.695Z,38.40
2023-02-12T10:37:04.052Z,40.00
2023-02-12T10:39:37.692Z,38.60
2023-02-12T10:42:12.413Z,36.45
2023-02-12T10:44:45.909Z,34.30
2023-02-12T10:47:20.586Z,33.05
2023-02-12T10:49:57.310Z,35.20
2023-02-12T10:52:36.540Z,32.45
2023-02-12T10:55:24.688Z,31.20
2023-02-12T10:57:58.480Z,30.65
2023-02-12T11:00:33.525Z,30.93
2023-02-12T11:03:07.494Z,31.90
2023-02-12T11:05:41.744Z,34.40
2023-02-12T11:08:27.839Z,31.80
2023-02-12T11:11:06.964Z,34.45
2023-02-12T11:13:41.280Z,35.00
2023-02-12T11:16:14.618Z,33.55
2023-02-12T11:18:47.350Z,35.90
2023-02-12T11:21:24.197Z,32.30
2023-02-12T11:23:57.002Z,27.85
2023-02-12T11:26:30.687Z,27.65
2023-02-12T11:29:04.318Z,27.00
2023-02-12T11:31:38.156Z,26.10
2023-02-12T11:34:15.647Z,25.20
2023-02-12T11:36:49.298Z,25.60
2023-02-12T11:39:25.162Z,25.55
2023-02-12T11:41:59.856Z,24.20
2023-02-12T11:44:35.834Z,22.80
2023-02-12T11:47:12.304Z,20.95
2023-02-12T11:49:45.973Z,19.45
2023-02-12T11:52:22.626Z,18.90
2023-02-12T11:54:57.201Z,21.33
2023-02-12T11:57:40.809Z,19.57
2023-02-12T12:00:17.562Z,22.80
2023-02-12T12:02:59.720Z,24.60
2023-02-12T12:05:36.551Z,25.65
2023-02-12T12:08:15.942Z,32.15
2023-02-12T12:10:52.041Z,30.90
2023-02-12T12:13:26.130Z,34.65
2023-02-12T12:16:23.768Z,29.70
2023-02-12T12:19:16.181Z,27.65
2023-02-12T12:21:52.100Z,23.83
2023-02-12T12:24:28.876Z,24.75
2023-02-12T12:27:03.566Z,25.75
2023-02-12T12:29:42.718Z,25.15
2023-02-12T12:32:16.669Z,25.65
2023-02-12T12:34:49.451Z,26.40
2023-02-12T12:37:30.775Z,28.70
2023-02-12T12:40:20.423Z,26.85
2023-02-12T12:43:03.592Z,26.65
2023-02-12T12:45:50.605Z,24.43
2023-02-12T12:48:27.364Z,23.60
2023-02-12T12:51:09.619Z,21.97
2023-02-12T12:56:30.948Z,22.00
2023-02-12T12:59:18.399Z,21.40
2023-02-12T13:02:20.553Z,21.10
2023-02-12T13:05:05.837Z,20.40
2023-02-12T13:07:44.281Z,19.35
2023-02-12T13:10:21.274Z,18.15
2023-02-12T13:13:13.852Z,16.77
2023-02-12T13:15:49.370Z,18.15
2023-02-12T13:18:30.473Z,17.03
2023-02-12T13:21:06.466Z,17.60
2023-02-12T13:23:42.395Z,18.25
2023-02-12T13:26:18.769Z,17.90
2023-02-12T13:28:54.299Z,19.30
2023-02-12T13:31:33.816Z,20.30
2023-02-12T13:34:08.405Z,20.80
2023-02-12T13:36:41.848Z,20.65
2023-02-12T13:39:20.369Z,20.65
2023-02-12T13:42:00.522Z,19.20
2023-02-12T13:44:37.542Z,21.20
2023-02-12T13:47:14.535Z,18.90
2023-02-12T13:49:50.504Z,21.50
2023-02-12T13:52:29.457Z,21.43
2023-02-12T13:55:12.268Z,20.23
2023-02-12T13:57:45.253Z,20.67
2023-02-12T14:00:40.970Z,20.10
2023-02-12T14:03:13.106Z,20.25
2023-02-12T14:05:46.121Z,19.27
2023-02-12T14:08:32.382Z,20.60
2023-02-12T14:11:09.368Z,24.45
2023-02-12T14:13:51.245Z,24.80
2023-02-12T14:16:40.259Z,23.75
2023-02-12T14:19:30.238Z,20.50
2023-02-12T14:22:03.626Z,19.80
2023-02-12T14:24:53.042Z,18.40
2023-02-12T14:27:39.702Z,19.13
2023-02-12T14:30:27.475Z,20.90
2023-02-12T14:33:01.397Z,22.67
2023-02-12T14:35:38.274Z,23.10
2023-02-12T14:38:30.382Z,23.40
2023-02-12T14:41:34.689Z,26.37
2023-02-12T14:46:50.333Z,24.93
2023-02-12T14:49:24.889Z,22.00
2023-02-12T14:52:00.117Z,23.80
2023-02-12T14:54:34.154Z,23.20
2023-02-12T14:57:08.785Z,23.40
2023-02-12T14:59:42.840Z,26.25
2023-02-12T15:02:21.418Z,28.13
2023-02-12T15:04:55.109Z,29.30
2023-02-12T15:07:31.259Z,31.45
2023-02-12T15:10:10.495Z,30.35
2023-02-12T15:12:46.714Z,29.85
2023-02-12T15:15:24.805Z,30.85
2023-02-12T15:17:59.570Z,29.70
2023-02-12T15:20:36.738Z,33.60
2023-02-12T15:23:23.251Z,35.30
2023-02-12T15:25:56.678Z,32.15
2023-02-12T15:28:34.033Z,33.60
2023-02-12T15:31:10.893Z,32.40
2023-02-12T15:33:47.517Z,31.90
2023-02-12T15:38:58.784Z,32.15
2023-02-12T15:41:37.493Z,30.15
2023-02-12T15:44:25.375Z,32.30
2023-02-12T15:46:59.434Z,34.20
2023-02-12T15:49:33.652Z,32.40
2023-02-12T15:52:08.940Z,37.27
2023-02-12T15:54:41.870Z,41.85
2023-02-12T15:57:15.683Z,38.00
2023-02-12T15:59:51.633Z,36.05
2023-02-12T16:02:27.559Z,33.43
2023-02-12T16:05:02.457Z,35.15
2023-02-12T16:07:38.143Z,33.15
2023-02-12T16:10:15.983Z,30.50
2023-02-12T16:12:48.992Z,32.65
2023-02-12T16:15:32.218Z,32.00
2023-02-12T16:18:06.268Z,32.77
2023-02-12T16:20:39.363Z,34.30
2023-02-12T16:23:14.400Z,32.10
2023-02-12T16:25:55.311Z,33.35
2023-02-12T16:28:29.500Z,32.77
2023-02-12T16:31:12.630Z,33.45
2023-02-12T16:33:48.863Z,33.50
2023-02-12T16:36:31.116Z,31.50
2023-02-12T16:39:05.410Z,31.83
2023-02-12T16:41:52.797Z,30.33
2023-02-12T16:44:31.709Z,30.75
2023-02-12T16:47:05.536Z,31.07
2023-02-12T16:49:39.753Z,29.25
2023-02-12T16:52:29.413Z,33.15
2023-02-12T16:55:02.723Z,31.15
2023-02-12T16:57:35.901Z,33.10
2023-02-12T17:00:11.336Z,33.00
2023-02-12T17:02:44.949Z,37.55
2023-02-12T17:05:18.956Z,35.73
2023-02-12T17:07:52.349Z,35.47
2023-02-12T17:10:25.133Z,34.75
2023-02-12T17:12:58.324Z,33.95
2023-02-12T17:15:32.747Z,35.90
2023-02-12T17:18:05.458Z,50.70
2023-02-12T17:20:38.718Z,56.90
2023-02-12T17:23:11.902Z,45.25
2023-02-12T17:25:45.091Z,42.87
2023-02-12T17:28:18.294Z,45.00
2023-02-12T17:30:51.496Z,42.97
2023-02-12T17:33:27.862Z,42.20
2023-02-12T17:36:01.336Z,45.00
2023-02-12T17:38:34.361Z,44.35
2023-02-12T17:41:11.809Z,46.50
2023-02-12T17:43:44.996Z,45.35
2023-02-12T17:46:19.553Z,47.37
2023-02-12T17:48:52.747Z,48.17
2023-02-12T17:51:25.949Z,48.80
2023-02-12T17:53:59.211Z,48.03
2023-02-12T17:56:32.711Z,49.23
2023-02-12T17:59:05.578Z,51.45
2023-02-12T18:01:40.265Z,46.30
2023-02-12T18:04:12.827Z,46.83
2023-02-12T18:06:45.952Z,46.40
2023-02-12T18:09:19.143Z,44.95
2023-02-12T18:11:52.334Z,44.60
2023-02-12T18:14:25.444Z,43.47
2023-02-12T18:16:59.160Z,42.30
2023-02-12T18:19:31.904Z,42.40
2023-02-12T18:22:05.301Z,40.85
2023-02-12T18:24:38.283Z,43.65
2023-02-12T18:27:11.467Z,42.20
2023-02-12T18:29:44.452Z,41.70
2023-02-12T18:32:18.261Z,41.60
2023-02-12T18:34:51.864Z,46.35
2023-02-12T18:37:25.047Z,47.13
2023-02-12T18:39:58.438Z,48.60
2023-02-12T18:42:33.560Z,51.10
2023-02-12T18:45:08.143Z,53.60
2023-02-12T18:47:41.086Z,50.30
2023-02-12T18:50:15.091Z,48.45
2023-02-12T18:52:48.146Z,47.25
2023-02-12T18:55:21.493Z,50.20
2023-02-12T18:57:54.657Z,52.20
2023-02-12T19:00:28.050Z,51.85
2023-02-12T19:03:01.447Z,52.17
2023-02-12T19:05:34.144Z,53.27
2023-02-12T19:08:08.143Z,52.40
2023-02-12T19:10:42.650Z,52.20
2023-02-12T19:13:15.428Z,52.25
2023-02-12T19:15:48.648Z,49.90
2023-02-12T19:18:21.511Z,48.83
2023-02-12T19:23:25.730Z,46.77
2023-02-12T19:26:03.425Z,48.30
2023-02-12T19:28:38.713Z,50.70
2023-02-12T19:31:15.164Z,49.15
2023-02-12T19:33:49.070Z,49.27
2023-02-12T19:36:22.737Z,51.93
2023-02-12T19:38:55.528Z,56.97
2023-02-12T19:41:29.541Z,54.35
2023-02-12T19:44:03.124Z,58.40
2023-02-12T19:46:39.295Z,59.10
2023-02-12T19:49:14.362Z,58.95
2023-02-12T19:51:47.408Z,59.90
2023-02-12T19:54:21.429Z,56.03
2023-02-12T19:56:55.644Z,57.90
2023-02-12T19:59:28.613Z,57.40
2023-02-12T20:02:02.894Z,54.75
2023-02-12T20:04:35.610Z,51.50
2023-02-12T20:07:09.544Z,50.45
2023-02-12T20:09:42.806Z,52.35
2023-02-12T20:12:15.998Z,53.85
2023-02-12T20:14:49.390Z,54.53
2023-02-12T20:17:22.378Z,57.80
2023-02-12T20:19:55.570Z,57.30
2023-02-12T20:22:28.755Z,58.75
2023-02-12T20:25:01.942Z,56.00
2023-02-12T20:27:36.154Z,57.40
2023-02-12T20:30:10.486Z,57.45
2023-02-12T20:32:44.854Z,56.67
2023-02-12T20:35:18.306Z,55.45
2023-02-12T20:37:51.167Z,56.00
2023-02-12T20:40:27.430Z,53.10
2023-02-12T20:43:00.806Z,53.25
2023-02-12T20:45:36.553Z,51.93
2023-02-12T20:48:10.062Z,53.55
2023-02-12T20:50:43.667Z,51.65
2023-02-12T20:53:16.849Z,51.25
2023-02-12T20:55:50.041Z,52.73
2023-02-12T20:58:23.229Z,52.40
2023-02-12T21:00:56.742Z,53.50
2023-02-12T21:03:29.613Z,52.25
2023-02-12T21:06:02.836Z,53.95
2023-02-12T21:08:36.514Z,50.55
2023-02-12T21:11:12.115Z,52.45
2023-02-12T21:13:58.622Z,50.20
2023-02-12T21:16:37.137Z,52.40
2023-02-12T21:19:09.833Z,54.85
2023-02-12T21:21:45.657Z,55.00
2023-02-12T21:24:20.550Z,53.53
2023-02-12T21:26:54.541Z,52.50
2023-02-12T21:29:29.586Z,55.40
2023-02-12T21:32:02.923Z,55.17
2023-02-12T21:34:35.732Z,54.83
2023-02-12T21:37:08.910Z,56.35
2023-02-12T21:39:42.311Z,58.97
2023-02-12T21:42:15.501Z,56.75
2023-02-12T21:44:48.684Z,56.40
2023-02-12T21:47:21.876Z,54.90
2023-02-12T21:49:55.081Z,52.13
2023-02-12T21:52:28.255Z,54.35
2023-02-12T21:55:01.444Z,56.45
2023-02-12T21:57:34.635Z,54.20
2023-02-12T22:00:09.344Z,55.40
2023-02-12T22:02:48.260Z,54.73
2023-02-12T22:05:22.391Z,55.30
2023-02-12T22:07:56.012Z,58.37
2023-02-12T22:10:30.815Z,63.45
2023-02-12T22:13:04.602Z,93.95
2023-02-12T22:15:37.405Z,111.73
2023-02-12T22:18:10.587Z,134.93
2023-02-12T22:20:43.780Z,122.30
2023-02-12T22:23:16.969Z,117.45
2023-02-12T22:25:50.357Z,121.95
2023-02-12T22:28:24.186Z,119.70
2023-02-12T22:30:57.447Z,106.45
2023-02-12T22:33:30.116Z,108.10
2023-02-12T22:36:05.406Z,111.65
2023-02-12T22:38:39.177Z,111.05
2023-02-12T22:41:12.156Z,100.00
2023-02-12T22:43:45.147Z,100.67
2023-02-12T22:46:18.409Z,96.30
2023-02-12T22:48:50.904Z,103.60
2023-02-12T22:51:24.348Z,106.17
2023-02-12T22:53:57.087Z,107.15
2023-02-12T22:56:30.268Z,111.43
2023-02-12T22:59:04.072Z,111.10
2023-02-12T23:01:37.498Z,104.20
2023-02-12T23:04:13.065Z,105.60
2023-02-12T23:06:46.711Z,105.00
2023-02-12T23:09:20.108Z,113.33
2023-02-12T23:11:54.312Z,112.30
2023-02-12T23:14:28.529Z,118.65
2023-02-12T23:17:02.150Z,131.30
2023-02-12T23:19:34.701Z,152.75
2023-02-12T23:22:08.109Z,161.35
2023-02-12T23:24:40.884Z,156.60
2023-02-12T23:27:14.900Z,152.03
2023-02-12T23:29:48.008Z,136.50
2023-02-12T23:32:20.679Z,136.87
2023-02-12T23:34:53.454Z,94.87
2023-02-12T23:37:27.668Z,83.40
2023-02-12T23:40:00.862Z,73.37
2023-02-12T23:42:34.050Z,69.13
2023-02-12T23:45:07.655Z,67.43
2023-02-12T23:47:40.634Z,65.40
2023-02-12T23:50:13.419Z,61.57
2023-02-12T23:52:47.225Z,65.10
2023-02-12T23:55:20.665Z,62.95
2023-02-12T23:57:53.194Z,66.23
